Time;durP1;ratioP1;P1;durP2;ratioP2;P2;SDS_P1;SDS_P2;PMS_P1;PMS_P2;Temp;Humidity;BMP_temperature;BMP_pressure;BME280_temperature;BME280_humidity;BME280_pressure;Samples;Min_cycle;Max_cycle;Signal;HPM_P1;HPM_P2
2022/01/14 04:20:56;;;;;;;;;;;;;;;2.25;96.50;101566.16;5154100;23;20304;-86
2022/01/14 04:23:24;;;;;;;;;;;;;;;2.16;96.01;101555.50;4993227;28;19922;-90
2022/01/14 04:25:53;;;;;;;;;;;;;;;2.13;95.66;101555.44;4994388;28;19920;-88
2022/01/14 04:28:23;;;;;;;;;;;;;;;2.07;95.18;101548.34;4993201;28;19957;-84
2022/01/14 04:30:54;;;;;;;;;;;;;;;2.04;94.79;101552.63;4994172;28;19917;-83
2022/01/14 04:33:19;;;;;;;;;;;;;;;1.95;94.21;101554.22;4992799;28;19945;-84
2022/01/14 04:35:44;;;;;;;;;;;;;;;1.91;93.86;101557.59;4986263;28;19926;-83
2022/01/14 04:38:09;;;;;;;;;;;;;;;1.90;93.66;101549.72;4993299;28;19914;-92
2022/01/14 04:40:35;;;;;;;;;;;;;;;1.84;93.38;101550.50;4988131;28;20361;-86
2022/01/14 04:43:00;;;;;;;;;;;;;;;1.79;93.12;101547.78;5006280;28;19918;-92
2022/01/14 04:45:42;;;;;;;;;;;;;;;1.76;92.72;101552.06;4989183;28;20404;-92
2022/01/14 04:48:09;;;;;;;;;;;;;;;1.70;92.21;101557.16;4993774;28;20369;-90
2022/01/14 04:50:35;;;;;;;;;;;;;;;1.67;91.74;101560.56;4991557;28;19987;-85
2022/01/14 04:53:00;;;;;;;;;;;;;;;1.61;91.27;101553.50;4992906;28;20008;-86
2022/01/14 04:55:26;;;;;;;;;;;;;;;1.58;90.68;101563.88;4993654;28;20292;-84
2022/01/14 04:57:52;;;;;;;;;;;;;;;1.68;92.11;101554.50;5008881;28;20052;-85
2022/01/14 05:00:19;;;;;;;;;;;;;;;1.75;93.61;101550.28;4992427;28;20012;-84
2022/01/14 05:02:44;;;;;;;;;;;;;;;1.77;94.18;101559.03;4980807;28;19926;-85
2022/01/14 05:05:10;;;;;;;;;;;;;;;1.70;94.35;101550.19;4990894;28;19922;-88
2022/01/14 05:07:36;;;;;;;;;;;;;;;1.67;94.73;101557.97;4993748;28;20060;-84
2022/01/14 05:12:28;;;;;;;;;;;;;;;1.59;94.53;101549.94;4993568;28;19933;-86
2022/01/14 05:14:53;;;;;;;;;;;;;;;1.54;94.40;101551.59;4993233;28;19918;-84
2022/01/14 05:17:18;;;;;;;;;;;;;;;1.49;94.08;101553.22;4991897;28;20292;-84
2022/01/14 05:19:44;;;;;;;;;;;;;;;1.46;93.84;101553.16;4990619;28;20265;-84
2022/01/14 05:22:09;;;;;;;;;;;;;;;1.39;93.58;101561.72;4992797;28;20499;-84
2022/01/14 05:24:34;;;;;;;;;;;;;;;1.32;93.28;101559.78;4991894;28;20008;-84
2022/01/14 05:27:00;;;;;;;;;;;;;;;1.32;93.04;101570.22;4991793;28;19928;-85
2022/01/14 05:29:25;;;;;;;;;;;;;;;1.30;92.45;101562.38;4991866;28;19925;-92
2022/01/14 05:31:52;;;;;;;;;;;;;;;1.23;92.30;101561.34;4993141;28;19928;-84
2022/01/14 05:34:17;;;;;;;;;;;;;;;1.21;92.08;101565.66;4982792;28;19924;-93
2022/01/14 05:36:43;;;;;;;;;;;;;;;1.21;91.72;101572.59;4993212;28;20020;-84
2022/01/14 05:39:09;;;;;;;;;;;;;;;1.19;91.65;101566.44;4992918;28;19924;-85
2022/01/14 05:41:34;;;;;;;;;;;;;;;1.17;91.49;101566.41;4991733;28;19925;-90
2022/01/14 05:43:59;;;;;;;;;;;;;;;1.13;91.28;101567.16;4991538;28;19922;-85
2022/01/14 08:46:31;;;;;;;;;;;;;;;2.69;100.00;101575.69;5665040;23;20363;-87
2022/01/14 08:48:59;;;;;;;;;;;;;;;2.77;100.00;101574.06;4990197;28;19928;-86
2022/01/14 08:51:27;;;;;;;;;;;;;;;2.82;100.00;101577.66;4992473;28;19921;-85
2022/01/14 08:53:52;;;;;;;;;;;;;;;2.91;100.00;101575.19;4992434;28;19922;-88
2022/01/14 08:56:17;;;;;;;;;;;;;;;2.96;100.00;101561.31;4991963;28;19940;-84
2022/01/14 08:58:43;;;;;;;;;;;;;;;3.02;100.00;101564.91;4992119;28;20380;-84
2022/01/14 09:01:08;;;;;;;;;;;;;;;3.06;100.00;101561.50;4991283;28;19972;-87
2022/01/14 09:03:33;;;;;;;;;;;;;;;3.13;100.00;101566.81;4992235;28;19925;-86
2022/01/14 09:05:58;;;;;;;;;;;;;;;3.17;100.00;101563.38;4993231;28;20265;-92
2022/01/14 09:08:24;;;;;;;;;;;;;;;3.20;100.00;101561.69;4992049;28;19929;-86
2022/01/14 09:10:49;;;;;;;;;;;;;;;3.26;100.00;101561.78;4991967;28;19965;-85
2022/01/14 09:13:15;;;;;;;;;;;;;;;3.33;100.00;101567.13;4993342;28;19921;-86
2022/01/14 09:15:40;;;;;;;;;;;;;;;3.36;100.00;101573.28;4991496;28;19928;-84
2022/01/14 09:18:06;;;;;;;;;;;;;;;3.42;100.00;101565.53;4991813;28;20229;-90
2022/01/14 09:20:32;;;;;;;;;;;;;;;3.45;100.00;101555.09;4991781;28;19925;-84
2022/01/14 09:22:59;;;;;;;;;;;;;;;3.48;100.00;101562.13;4991495;28;19922;-85
2022/01/14 09:25:24;;;;;;;;;;;;;;;3.55;100.00;101549.97;4992286;28;19922;-87
2022/01/14 09:27:52;;;;;;;;;;;;;;;3.57;100.00;101550.88;4991685;28;19944;-86
2022/01/14 09:30:17;;;;;;;;;;;;;;;3.61;100.00;101555.31;4991442;28;19918;-86
2022/01/14 09:32:42;;;;;;;;;;;;;;;3.66;100.00;101543.16;4990972;28;20280;-90
2022/01/14 09:35:08;;;;;;;;;;;;;;;3.69;100.00;101547.56;4991855;28;19984;-89
2022/01/14 09:37:34;;;;;;;;;;;;;;;3.73;100.00;101547.59;4991133;28;20347;-86
2022/01/14 09:39:59;;;;;;;;;;;;;;;3.75;100.00;101545.91;4991958;28;19921;-85
2022/01/14 09:42:24;;;;;;;;;;;;;;;3.79;100.00;101554.69;4993057;28;20591;-88
2022/01/14 09:44:50;;;;;;;;;;;;;;;3.81;100.00;101551.22;4991527;28;19918;-88
2022/01/14 09:47:19;;;;;;;;;;;;;;;3.86;100.00;101553.00;4985435;28;20339;-90
2022/01/14 09:49:44;;;;;;;;;;;;;;;3.89;100.00;101555.66;4992787;28;19922;-89
2022/01/14 09:52:10;;;;;;;;;;;;;;;3.91;100.00;101561.81;4991526;28;20441;-87
2022/01/14 09:54:37;;;;;;;;;;;;;;;3.94;100.00;101559.22;4991708;28;19942;-86
2022/01/14 09:57:02;;;;;;;;;;;;;;;3.51;100.00;101569.13;4991209;28;19944;-86
2022/01/14 09:59:27;;;;;;;;;;;;;;;2.78;100.00;101570.59;4992657;28;19926;-87
2022/01/14 10:01:52;;;;;;;;;;;;;;;2.49;100.00;101568.34;4985811;28;20385;-89
2022/01/14 10:04:19;;;;;;;;;;;;;;;2.34;100.00;101578.50;4991364;28;20112;-85
2022/01/14 10:06:45;;;;;;;;;;;;;;;2.22;100.00;101578.25;4999286;28;19925;-92
2022/01/14 10:09:17;;;;;;;;;;;;;;;2.13;100.00;101574.63;4991249;28;19918;-87
2022/01/14 10:11:57;;;;;;;;;;;;;;;2.04;100.00;101574.41;4991318;28;19929;-90
2022/01/14 10:14:23;;;;;;;;;;;;;;;1.96;100.00;101566.44;4991130;28;20297;-87
2022/01/14 10:16:52;;;;;;;;;;;;;;;1.95;100.00;101569.03;4989852;28;19922;-85
2022/01/14 10:19:18;;;;;;;;;;;;;;;1.89;100.00;101569.75;4990795;28;20004;-91
2022/01/14 10:21:43;;;;;;;;;;;;;;;1.82;100.00;101565.28;4992690;28;19976;-86
2022/01/14 10:24:10;;;;;;;;;;;;;;;1.81;99.30;101566.97;4991507;28;20332;-84
2022/01/14 10:26:49;;;;;;;;;;;;;;;1.70;98.26;101570.22;4991021;28;20008;-84
2022/01/14 10:29:14;;;;;;;;;;;;;;;1.66;97.17;101565.75;5002884;28;19976;-89
2022/01/14 10:31:42;;;;;;;;;;;;;;;1.59;96.23;101564.75;4991194;28;20004;-91
2022/01/14 10:34:10;;;;;;;;;;;;;;;1.53;95.29;101559.38;5004257;28;20012;-88
2022/01/14 10:36:36;;;;;;;;;;;;;;;1.45;94.50;101559.22;5003110;28;19920;-88
2022/01/14 10:39:16;;;;;;;;;;;;;;;1.46;93.70;101563.59;4995933;28;20024;-86
2022/01/14 10:41:41;;;;;;;;;;;;;;;1.39;92.85;101546.91;4994880;28;19922;-88
2022/01/14 10:44:38;;;;;;;;;;;;;;;1.33;92.00;101546.75;4994893;28;19918;-85
2022/01/14 10:47:11;;;;;;;;;;;;;;;1.27;91.28;101533.56;4983531;28;19926;-86
2022/01/14 10:49:37;;;;;;;;;;;;;;;1.24;90.66;101531.75;4994618;28;19925;-87
2022/01/14 10:52:13;;;;;;;;;;;;;;;1.23;90.38;101531.75;4995661;28;20008;-84
2022/01/14 10:54:39;;;;;;;;;;;;;;;1.19;89.98;101520.31;4994287;28;19918;-86
2022/01/14 10:57:16;;;;;;;;;;;;;;;1.16;89.81;101525.47;4994752;28;19925;-88
2022/01/14 10:59:42;;;;;;;;;;;;;;;1.14;89.63;101524.56;4995012;28;19929;-93
2022/01/14 11:02:30;;;;;;;;;;;;;;;1.11;89.27;101516.66;4994804;28;19918;-89
2022/01/14 11:05:02;;;;;;;;;;;;;;;1.11;89.21;101514.03;4990107;28;19922;-86
2022/01/14 11:07:27;;;;;;;;;;;;;;;1.05;88.84;101511.28;4994642;28;19929;-89
2022/01/14 11:09:52;;;;;;;;;;;;;;;1.02;88.76;101519.94;4995851;28;20316;-91
2022/01/14 11:12:18;;;;;;;;;;;;;;;1.04;88.80;101513.00;4995659;28;19918;-88
2022/01/14 11:14:43;;;;;;;;;;;;;;;1.06;88.85;101516.53;4995754;28;20020;-87
2022/01/14 11:17:09;;;;;;;;;;;;;;;1.05;88.67;101506.06;4992849;28;20020;-86
2022/01/14 11:19:35;;;;;;;;;;;;;;;1.00;88.73;101500.72;4994403;28;20475;-93
2022/01/14 11:24:46;;;;;;;;;;;;;;;0.97;88.26;101487.59;4995046;28;19928;-86
2022/01/14 11:27:13;;;;;;;;;;;;;;;0.90;88.13;101486.56;5002814;28;20450;-91
2022/01/14 11:29:43;;;;;;;;;;;;;;;0.92;88.01;101490.97;4995424;28;19914;-93
2022/01/14 11:32:09;;;;;;;;;;;;;;;0.84;87.94;101478.59;4994282;28;19918;-85
2022/01/14 11:34:40;;;;;;;;;;;;;;;0.86;87.97;101479.53;4994023;28;19917;-90
2022/01/14 11:37:06;;;;;;;;;;;;;;;0.83;87.90;101469.03;5009550;28;19918;-86
2022/01/14 11:39:34;;;;;;;;;;;;;;;0.80;87.58;101475.88;4993597;28;19917;-85
2022/01/14 11:42:05;;;;;;;;;;;;;;;0.80;87.54;101466.34;4993885;28;19949;-93
2022/01/14 11:47:36;;;;;;;;;;;;;;;0.74;87.22;101471.41;4993428;28;19972;-92
2022/01/14 11:50:03;;;;;;;;;;;;;;;0.75;87.23;101456.63;4995312;28;19917;-93
2022/01/14 11:52:35;;;;;;;;;;;;;;;0.77;87.21;101460.16;4994704;28;19918;-85
2022/01/14 11:55:00;;;;;;;;;;;;;;;0.77;87.22;101453.22;5002112;28;20417;-88
2022/01/14 11:57:39;;;;;;;;;;;;;;;0.70;87.09;101465.25;4993496;28;19925;-87
2022/01/14 12:00:24;;;;;;;;;;;;;;;0.68;87.23;101455.59;4994016;28;19972;-89
2022/01/14 12:02:50;;;;;;;;;;;;;;;0.72;87.27;101442.66;4995065;28;19922;-95
2022/01/14 12:05:16;;;;;;;;;;;;;;;0.73;87.28;101446.13;4995414;28;20296;-94
2022/01/14 12:07:59;;;;;;;;;;;;;;;0.71;87.22;101440.00;4995212;28;20292;-88
2022/01/14 12:10:29;;;;;;;;;;;;;;;0.71;87.31;101443.50;4994657;28;19924;-91
2022/01/14 12:13:14;;;;;;;;;;;;;;;0.67;87.11;101432.94;4994695;28;19921;-90
2022/01/14 12:15:47;;;;;;;;;;;;;;;0.65;87.09;101427.69;4993243;28;19914;-88
2022/01/14 12:18:12;;;;;;;;;;;;;;;0.67;87.05;101422.50;5009199;28;19917;-85
2022/01/14 12:20:47;;;;;;;;;;;;;;;0.65;86.93;101409.44;4993379;28;19928;-92
2022/01/14 12:23:17;;;;;;;;;;;;;;;0.64;86.90;101417.22;4994230;28;19980;-85
2022/01/14 12:25:43;;;;;;;;;;;;;;;0.61;86.68;101414.56;4994368;28;19920;-89
2022/01/14 12:28:16;;;;;;;;;;;;;;;0.62;86.68;101409.34;4993357;28;19926;-92
2022/01/14 12:30:55;;;;;;;;;;;;;;;0.62;86.61;101408.47;4992085;28;19921;-87
2022/01/14 12:33:40;;;;;;;;;;;;;;;0.59;86.59;101398.88;4994248;28;19918;-93
2022/01/14 12:36:10;;;;;;;;;;;;;;;0.58;86.62;101397.09;5000861;28;20497;-89
2022/01/14 12:38:37;;;;;;;;;;;;;;;0.59;86.61;101392.75;4993141;28;19953;-94
2022/01/14 12:41:03;;;;;;;;;;;;;;;0.61;86.56;101393.69;4992992;28;19972;-91
2022/01/14 12:43:29;;;;;;;;;;;;;;;0.58;86.50;101385.78;4994193;28;19917;-90
2022/01/14 12:46:13;;;;;;;;;;;;;;;0.61;86.76;101372.81;4991794;28;19961;-93
2022/01/14 12:48:50;;;;;;;;;;;;;;;0.59;86.54;101371.88;4993958;28;20277;-90
2022/01/14 12:51:17;;;;;;;;;;;;;;;1.04;89.50;101372.03;4992478;28;19965;-91
2022/01/14 12:53:49;;;;;;;;;;;;;;;1.30;92.46;101365.59;4992687;28;19964;-91
2022/01/14 12:56:16;;;;;;;;;;;;;;;1.38;94.66;101358.81;4992667;28;20288;-92
2022/01/14 12:58:55;;;;;;;;;;;;;;;1.48;96.49;101363.34;4992626;28;20353;-89
2022/01/14 13:01:25;;;;;;;;;;;;;;;1.56;97.88;101359.13;4991948;28;19928;-91
2022/01/14 13:03:50;;;;;;;;;;;;;;;1.71;99.44;101353.34;4993110;28;19925;-89
2022/01/14 13:06:15;;;;;;;;;;;;;;;1.93;100.00;101349.38;4993355;28;20304;-94
2022/01/14 13:08:41;;;;;;;;;;;;;;;2.14;100.00;101345.38;4993545;28;19922;-91
2022/01/14 13:11:06;;;;;;;;;;;;;;;2.30;100.00;101331.69;4993350;28;19925;-90
2022/01/14 13:13:32;;;;;;;;;;;;;;;2.45;100.00;101335.38;4993501;28;19921;-90
2022/01/14 13:16:05;;;;;;;;;;;;;;;2.61;100.00;101326.88;4991132;28;19970;-92
2022/01/14 13:18:37;;;;;;;;;;;;;;;2.72;100.00;101324.44;4992252;28;19922;-88
2022/01/14 13:21:03;;;;;;;;;;;;;;;2.84;100.00;101324.59;4991533;28;19975;-94
2022/01/14 13:23:28;;;;;;;;;;;;;;;2.95;100.00;101326.47;4993411;28;19921;-89
2022/01/14 13:25:54;;;;;;;;;;;;;;;3.03;100.00;101325.72;4993492;28;19926;-91
2022/01/14 13:28:20;;;;;;;;;;;;;;;3.07;100.00;101317.03;4993235;28;19918;-92
2022/01/14 13:30:45;;;;;;;;;;;;;;;3.17;100.00;101325.00;4990935;28;20278;-92
2022/01/14 13:33:13;;;;;;;;;;;;;;;3.23;100.00;101312.84;4992242;28;20394;-92
2022/01/14 13:35:40;;;;;;;;;;;;;;;3.30;100.00;101313.78;4992290;28;19981;-89
2022/01/14 13:38:07;;;;;;;;;;;;;;;3.35;100.00;101317.38;4992263;28;19949;-85
2022/01/14 13:40:52;;;;;;;;;;;;;;;3.40;100.00;101305.19;4992095;28;19926;-89
2022/01/14 13:43:33;;;;;;;;;;;;;;;3.46;100.00;101317.47;4991667;28;19922;-90
2022/01/14 13:46:02;;;;;;;;;;;;;;;3.53;100.00;101315.81;4990388;28;20440;-92
2022/01/14 13:48:27;;;;;;;;;;;;;;;3.56;100.00;101311.47;4991770;28;19937;-91
2022/01/14 13:51:04;;;;;;;;;;;;;;;3.61;100.00;101317.63;4992012;28;19922;-88
2022/01/14 13:53:33;;;;;;;;;;;;;;;3.67;100.00;101314.22;5008183;28;19922;-91
2022/01/14 13:56:06;;;;;;;;;;;;;;;3.71;100.00;101309.88;4992134;28;19952;-92
2022/01/14 13:58:32;;;;;;;;;;;;;;;3.74;100.00;101308.16;4993392;28;20361;-92
2022/01/14 14:01:02;;;;;;;;;;;;;;;3.79;100.00;101301.19;4991763;28;19925;-91
2022/01/14 14:03:45;;;;;;;;;;;;;;;3.81;100.00;101301.22;4992456;28;19933;-92
2022/01/14 14:06:20;;;;;;;;;;;;;;;3.85;100.00;101300.38;4992067;28;20056;-91
2022/01/14 14:16:48;;;;;;;;;;;;;;;4.02;100.00;101297.03;4995229;28;19929;-93
2022/01/14 14:19:13;;;;;;;;;;;;;;;4.06;100.00;101296.19;5011726;28;20373;-90
2022/01/14 14:21:44;;;;;;;;;;;;;;;4.07;100.00;101288.34;4996861;28;19925;-94
2022/01/14 14:24:10;;;;;;;;;;;;;;;4.12;100.00;101294.50;4996592;28;19918;-91
2022/01/14 14:26:35;;;;;;;;;;;;;;;4.13;100.00;101287.47;4995849;28;19925;-94
2022/01/14 14:29:02;;;;;;;;;;;;;;;3.31;100.00;101288.50;4996710;28;20004;-90
2022/01/14 14:31:29;;;;;;;;;;;;;;;2.84;100.00;101294.91;4994146;28;19934;-92
2022/01/14 14:33:54;;;;;;;;;;;;;;;2.59;100.00;101291.97;4996506;28;19964;-89
2022/01/14 14:36:22;;;;;;;;;;;;;;;2.48;100.00;101277.88;4996504;28;19925;-91
2022/01/14 14:38:47;;;;;;;;;;;;;;;2.40;100.00;101282.97;4995196;28;19988;-87
2022/01/14 14:41:12;;;;;;;;;;;;;;;2.30;100.00;101279.34;4995248;28;19957;-93
2022/01/14 14:43:38;;;;;;;;;;;;;;;2.25;100.00;101272.28;4996603;28;19921;-94
2022/01/14 14:46:04;;;;;;;;;;;;;;;2.19;100.00;101280.94;4997689;28;19928;-94
2022/01/14 14:48:29;;;;;;;;;;;;;;;2.14;100.00;101278.25;4997986;28;19960;-92
2022/01/14 14:50:55;;;;;;;;;;;;;;;2.09;100.00;101274.69;4998227;28;19973;-93
2022/01/14 14:53:20;;;;;;;;;;;;;;;2.06;100.00;101268.50;4995998;28;19921;-91
2022/01/14 14:55:45;;;;;;;;;;;;;;;1.99;100.00;101268.44;4997474;28;19918;-92
2022/01/14 14:58:11;;;;;;;;;;;;;;;1.97;100.00;101272.75;4998781;28;19918;-95
2022/01/14 15:00:37;;;;;;;;;;;;;;;1.93;100.00;101268.34;4998029;28;19922;-93
2022/01/14 15:03:06;;;;;;;;;;;;;;;1.87;99.61;101265.63;4997539;28;20367;-93
2022/01/14 15:05:31;;;;;;;;;;;;;;;1.84;98.81;101262.94;4995116;28;20308;-89
2022/01/14 15:07:56;;;;;;;;;;;;;;;1.78;97.88;101247.16;5003219;28;20052;-91
2022/01/14 15:10:23;;;;;;;;;;;;;;;1.74;97.28;101259.31;4995784;28;19921;-94
2022/01/14 15:12:48;;;;;;;;;;;;;;;1.70;96.43;101246.16;5004878;28;20213;-93
2022/01/14 15:20:31;;;;;;;;;;;;;;;1.58;93.93;101255.56;4998948;28;19989;-91
2022/01/14 15:22:57;;;;;;;;;;;;;;;1.54;93.55;101252.84;4995357;28;19945;-91
2022/01/14 15:25:22;;;;;;;;;;;;;;;1.51;92.94;101247.56;4995342;28;20272;-91
2022/01/14 15:27:48;;;;;;;;;;;;;;;1.47;92.32;101257.09;4995447;28;20348;-90
2022/01/14 15:30:15;;;;;;;;;;;;;;;1.43;91.71;101252.66;4996989;28;19926;-91
2022/01/14 15:32:40;;;;;;;;;;;;;;;1.40;91.37;101252.59;4995404;28;19976;-91
2022/01/14 15:35:06;;;;;;;;;;;;;;;1.36;91.05;101254.28;4998187;28;19918;-86
2022/01/14 15:37:31;;;;;;;;;;;;;;;1.36;90.97;101249.06;4997908;28;19983;-94
2022/01/14 15:39:56;;;;;;;;;;;;;;;1.38;90.61;101252.56;4994784;28;19922;-91
2022/01/14 15:42:21;;;;;;;;;;;;;;;1.34;90.38;101242.94;4996076;28;19953;-91
2022/01/14 15:44:47;;;;;;;;;;;;;;;1.33;90.36;101243.78;4997704;28;19925;-93
2022/01/14 15:47:12;;;;;;;;;;;;;;;1.30;90.20;101237.63;4995538;28;19961;-93
2022/01/14 15:49:38;;;;;;;;;;;;;;;1.26;90.06;101239.28;4996180;28;20044;-94
2022/01/14 15:52:05;;;;;;;;;;;;;;;1.27;89.81;101239.31;4993069;28;19922;-90
2022/01/14 15:54:30;;;;;;;;;;;;;;;1.23;89.66;101242.72;4987101;28;20259;-92
2022/01/14 15:56:56;;;;;;;;;;;;;;;1.22;89.49;101245.31;4985836;28;19922;-90
2022/01/14 15:59:21;;;;;;;;;;;;;;;1.15;89.51;101241.72;4985784;28;20117;-93
2022/01/14 16:01:48;;;;;;;;;;;;;;;1.12;89.46;101246.88;4984638;28;20251;-94
2022/01/14 16:04:13;;;;;;;;;;;;;;;1.12;89.11;101249.50;4985703;28;19926;-92
2022/01/14 16:06:42;;;;;;;;;;;;;;;1.11;88.84;101250.34;4985307;28;19981;-87
2022/01/14 16:09:07;;;;;;;;;;;;;;;1.07;88.71;101252.00;4985754;28;20377;-92
2022/01/14 16:11:34;;;;;;;;;;;;;;;1.05;88.61;101253.72;4985918;28;19973;-88
2022/01/14 16:14:10;;;;;;;;;;;;;;;1.08;88.60;101242.44;4979391;28;19922;-94
2022/01/14 16:16:35;;;;;;;;;;;;;;;1.07;88.59;101251.13;4983128;28;20428;-93
2022/01/14 16:19:00;;;;;;;;;;;;;;;1.06;88.63;101249.38;4983244;28;19922;-91
2022/01/14 16:21:26;;;;;;;;;;;;;;;1.06;88.50;101254.59;4985613;28;19926;-88
2022/01/14 16:23:51;;;;;;;;;;;;;;;1.03;88.54;101254.53;4981999;28;19946;-85
2022/01/14 16:26:16;;;;;;;;;;;;;;;1.02;88.42;101256.28;4987597;28;19926;-87
2022/01/14 16:28:42;;;;;;;;;;;;;;;1.00;88.17;101249.25;4982395;28;19933;-85
2022/01/14 16:31:07;;;;;;;;;;;;;;;0.96;88.03;101252.63;4981701;28;20296;-86
2022/01/14 16:33:32;;;;;;;;;;;;;;;0.97;87.87;101243.97;4981637;28;19928;-85
2022/01/14 16:35:58;;;;;;;;;;;;;;;0.93;87.77;101253.47;4983663;28;19937;-84
2022/01/14 16:38:24;;;;;;;;;;;;;;;0.90;87.62;101262.09;4984119;28;20348;-85
2022/01/14 16:40:50;;;;;;;;;;;;;;;0.87;87.53;101249.00;4984101;28;19926;-87
2022/01/14 16:43:16;;;;;;;;;;;;;;;0.90;87.56;101249.06;4981433;28;19972;-85
2022/01/14 16:45:42;;;;;;;;;;;;;;;0.87;87.40;101237.69;4981072;28;19957;-85
2022/01/14 16:48:07;;;;;;;;;;;;;;;0.90;87.45;101238.63;4980787;28;20455;-84
2022/01/14 16:50:32;;;;;;;;;;;;;;;0.90;87.54;101243.84;4983284;28;19928;-86
2022/01/14 16:52:58;;;;;;;;;;;;;;;0.90;87.51;101238.63;4981776;28;19926;-87
2022/01/14 16:55:23;;;;;;;;;;;;;;;0.87;87.51;101242.91;4989234;28;19948;-94
2022/01/14 16:57:48;;;;;;;;;;;;;;;0.87;87.35;101237.69;4989417;28;20013;-95
2022/01/14 17:00:16;;;;;;;;;;;;;;;0.87;87.34;101238.56;4988984;28;19929;-89
2022/01/14 17:02:41;;;;;;;;;;;;;;;0.81;87.22;101232.34;4992526;28;19918;-88
2022/01/14 17:05:07;;;;;;;;;;;;;;;0.80;87.01;101235.78;4984868;28;19925;-93
2022/01/14 17:07:32;;;;;;;;;;;;;;;0.80;86.85;101231.47;4986622;28;19922;-91
2022/01/14 17:09:58;;;;;;;;;;;;;;;0.78;86.94;101224.44;4986605;28;19948;-91
2022/01/14 17:12:27;;;;;;;;;;;;;;;0.79;86.73;101221.88;4985863;28;19926;-95
2022/01/14 17:14:53;;;;;;;;;;;;;;;0.77;86.62;101220.09;4996554;28;19921;-93
2022/01/14 17:17:18;;;;;;;;;;;;;;;0.78;86.62;101227.94;4990222;28;19945;-94
2022/01/14 17:19:43;;;;;;;;;;;;;;;0.73;86.43;101226.97;4982147;28;19928;-93
2022/01/14 17:22:09;;;;;;;;;;;;;;;0.74;86.33;101226.13;4985055;28;20345;-90
2022/01/14 17:24:35;;;;;;;;;;;;;;;0.73;86.12;101229.56;4980737;28;19945;-87
2022/01/14 17:27:01;;;;;;;;;;;;;;;0.74;86.32;101226.13;4987161;28;19922;-92
2022/01/14 17:29:26;;;;;;;;;;;;;;;0.76;86.24;101221.81;4984888;28;19918;-87
2022/01/14 17:31:52;;;;;;;;;;;;;;;0.74;86.18;101220.91;4980501;28;20372;-90
2022/01/14 17:34:18;;;;;;;;;;;;;;;0.71;86.19;101231.28;4985472;28;19917;-91
2022/01/14 17:36:43;;;;;;;;;;;;;;;0.70;86.22;101217.34;4986028;28;19921;-93
2022/01/14 17:39:09;;;;;;;;;;;;;;;0.73;86.14;101216.53;4985348;28;20374;-92
2022/01/14 17:41:34;;;;;;;;;;;;;;;0.71;85.96;101215.63;4987493;28;19922;-86
2022/01/14 17:43:59;;;;;;;;;;;;;;;0.72;86.00;101214.78;4987757;28;19964;-93
2022/01/14 17:46:25;;;;;;;;;;;;;;;0.66;85.90;101218.13;4982263;28;19925;-91
2022/01/14 17:48:50;;;;;;;;;;;;;;;0.66;85.68;101222.47;4986023;28;19927;-93
2022/01/14 17:51:17;;;;;;;;;;;;;;;0.65;85.67;101216.34;4985254;28;20278;-92
2022/01/14 17:53:43;;;;;;;;;;;;;;;0.66;85.39;101215.53;4981716;28;19925;-89
2022/01/14 17:56:09;;;;;;;;;;;;;;;0.64;85.44;101224.16;4994374;28;19926;-88
2022/01/14 17:58:36;;;;;;;;;;;;;;;0.67;85.33;101216.38;4983644;28;20348;-88
2022/01/14 18:01:02;;;;;;;;;;;;;;;0.63;85.21;101223.28;4981285;28;19928;-94
2022/01/14 18:03:27;;;;;;;;;;;;;;;0.64;85.03;101211.09;4982421;28;19918;-93
2022/01/14 18:05:53;;;;;;;;;;;;;;;0.62;84.93;101210.22;4983362;28;20032;-91
2022/01/14 18:08:18;;;;;;;;;;;;;;;0.60;84.90;101218.00;4982622;28;19950;-91
2022/01/14 18:10:44;;;;;;;;;;;;;;;0.59;84.74;101213.66;4982723;28;19921;-89
2022/01/14 18:13:14;;;;;;;;;;;;;;;0.62;84.65;101210.22;4983483;28;19946;-95
2022/01/14 18:15:43;;;;;;;;;;;;;;;0.63;84.49;101212.84;4982815;28;19918;-94
2022/01/14 18:18:11;;;;;;;;;;;;;;;0.60;84.64;101217.13;4988776;28;19922;-94
2022/01/14 18:20:37;;;;;;;;;;;;;;;0.67;84.76;101213.78;4981625;28;19925;-93
2022/01/14 18:23:02;;;;;;;;;;;;;;;0.66;84.62;101201.59;4992017;28;19922;-94
2022/01/14 18:25:27;;;;;;;;;;;;;;;0.67;84.58;101203.34;4984667;28;19922;-93
2022/01/14 18:27:52;;;;;;;;;;;;;;;0.63;84.46;101198.94;4990720;28;19930;-93
2022/01/14 18:30:18;;;;;;;;;;;;;;;0.67;84.43;101204.25;4991346;28;20017;-93
2022/01/14 18:32:44;;;;;;;;;;;;;;;0.67;84.18;101203.34;4981986;28;19950;-87
2022/01/14 18:35:10;;;;;;;;;;;;;;;0.65;84.01;101203.31;4983343;28;19966;-91
2022/01/14 18:37:35;;;;;;;;;;;;;;;0.60;83.80;101206.69;4983347;28;19922;-90
2022/01/14 18:40:00;;;;;;;;;;;;;;;0.60;83.77;101204.09;4980480;28;20457;-90
2022/01/14 18:42:27;;;;;;;;;;;;;;;0.62;83.70;101200.63;4981219;28;19932;-90
2022/01/14 18:44:52;;;;;;;;;;;;;;;0.62;83.62;101208.47;4985819;28;19976;-84
2022/01/14 18:47:17;;;;;;;;;;;;;;;0.59;83.46;101202.31;4981001;28;19926;-85
2022/01/14 18:49:43;;;;;;;;;;;;;;;0.60;83.43;101212.78;4981530;28;19949;-91
2022/01/14 18:52:09;;;;;;;;;;;;;;;0.61;83.19;101209.34;4986447;28;19926;-90
2022/01/14 18:54:35;;;;;;;;;;;;;;;0.65;82.97;101207.66;4982752;28;19918;-89
2022/01/14 18:57:03;;;;;;;;;;;;;;;0.60;82.90;101206.69;4986730;28;19932;-89
2022/01/14 18:59:28;;;;;;;;;;;;;;;0.64;82.84;101195.44;4989352;28;19925;-91
2022/01/14 19:01:54;;;;;;;;;;;;;;;0.63;82.80;101196.31;4988837;28;19932;-88
2022/01/14 19:04:19;;;;;;;;;;;;;;;0.63;82.64;101191.09;4991263;28;19969;-89
2022/01/14 19:06:44;;;;;;;;;;;;;;;0.66;82.79;101191.16;4986597;28;20366;-91
2022/01/14 19:09:10;;;;;;;;;;;;;;;0.67;82.54;101187.69;4986754;28;19929;-86
2022/01/14 19:11:35;;;;;;;;;;;;;;;0.66;82.33;101197.25;4990145;28;20474;-85
2022/01/14 19:14:08;;;;;;;;;;;;;;;0.67;82.33;101193.81;4985283;28;20037;-84
2022/01/14 19:16:35;;;;;;;;;;;;;;;0.72;82.17;101197.38;4987166;28;19926;-93
2022/01/14 19:19:01;;;;;;;;;;;;;;;0.68;82.16;101195.56;4987734;28;19918;-91
2022/01/14 19:21:26;;;;;;;;;;;;;;;0.73;82.09;101185.22;4993382;28;19928;-89
2022/01/14 19:23:52;;;;;;;;;;;;;;;0.73;81.88;101177.38;4986600;28;19930;-89
2022/01/14 19:26:17;;;;;;;;;;;;;;;0.73;81.69;101174.78;4993305;28;19930;-89
2022/01/14 19:28:43;;;;;;;;;;;;;;;0.73;81.37;101177.38;4984474;28;19922;-88
2022/01/14 19:31:08;;;;;;;;;;;;;;;0.76;81.31;101177.44;4982982;28;19950;-94
2022/01/14 19:33:34;;;;;;;;;;;;;;;0.79;81.11;101185.34;4988023;28;19926;-93
2022/01/14 19:35:59;;;;;;;;;;;;;;;0.77;80.84;101183.56;4984940;28;20801;-87
2022/01/14 19:38:28;;;;;;;;;;;;;;;0.79;80.81;101182.72;4984157;28;19945;-92
2022/01/14 19:40:54;;;;;;;;;;;;;;;0.79;80.72;101187.94;4988292;28;19941;-86
2022/01/14 19:43:19;;;;;;;;;;;;;;;0.81;80.55;101185.38;4984379;28;20020;-87
2022/01/14 19:45:46;;;;;;;;;;;;;;;0.82;80.18;101184.53;4984154;28;19970;-88
2022/01/14 19:48:11;;;;;;;;;;;;;;;0.81;80.17;101174.94;4987583;28;19996;-91
2022/01/14 19:50:38;;;;;;;;;;;;;;;0.83;80.28;101170.59;4984197;28;20333;-94
2022/01/14 19:53:04;;;;;;;;;;;;;;;0.83;79.90;101174.13;5001139;28;19925;-89
2022/01/14 19:55:29;;;;;;;;;;;;;;;0.81;79.82;101162.75;4987246;28;20377;-86
2022/01/14 19:57:54;;;;;;;;;;;;;;;0.82;79.88;101167.13;4981875;28;19959;-87
2022/01/14 20:00:20;;;;;;;;;;;;;;;0.84;79.80;101161.94;4986084;28;19921;-85
2022/01/14 20:02:45;;;;;;;;;;;;;;;0.87;79.57;101160.25;4986565;28;19922;-86
2022/01/14 20:05:12;;;;;;;;;;;;;;;0.85;79.49;101161.09;4980936;28;19929;-87
2022/01/14 20:07:37;;;;;;;;;;;;;;;0.83;79.26;101153.25;4986915;28;19929;-90
2022/01/14 20:10:05;;;;;;;;;;;;;;;0.86;79.08;101158.53;4985815;28;20464;-91
2022/01/14 20:12:30;;;;;;;;;;;;;;;0.85;78.88;101163.72;4985864;28;20374;-93
2022/01/14 20:14:56;;;;;;;;;;;;;;;0.88;78.88;101150.72;4984152;28;19953;-87
2022/01/14 20:17:21;;;;;;;;;;;;;;;0.87;78.63;101160.25;4983930;28;20377;-85
2022/01/14 20:19:46;;;;;;;;;;;;;;;0.85;78.57;101154.13;4988777;28;19929;-86
2022/01/14 20:22:11;;;;;;;;;;;;;;;0.92;78.81;101154.25;4982833;28;19921;-87
2022/01/14 20:24:37;;;;;;;;;;;;;;;0.87;78.48;101155.03;4988435;28;20013;-86